Time;durP1;ratioP1;P1;durP2;ratioP2;P2;SDS_P1;SDS_P2;PMS_P1;PMS_P2;Temp;Humidity;BMP_temperature;BMP_pressure;BME280_temperature;BME280_humidity;BME280_pressure;Samples;Min_cycle;Max_cycle;Signal;HPM_P1;HPM_P2
2023/09/18 00:00:32;;;;;;;;;;;22.90;63.30;;;;;;5068892;28;19928;-63
2023/09/18 00:03:02;;;;;;;;;;;22.80;63.20;;;;;;5077396;28;19924;-60
2023/09/18 00:05:29;;;;;;;;;;;22.90;63.30;;;;;;5067003;28;19924;-61
2023/09/18 00:07:57;;;;;;;;;;;22.80;63.10;;;;;;5087699;28;19925;-61
2023/09/18 00:10:24;;;;;;;;;;;22.90;63.30;;;;;;5079009;28;19928;-60
2023/09/18 00:12:51;;;;;;;;;;;22.90;63.30;;;;;;5079556;28;19928;-61
2023/09/18 00:15:18;;;;;;;;;;;22.90;63.30;;;;;;5057149;28;19929;-61
2023/09/18 00:17:45;;;;;;;;;;;22.80;63.10;;;;;;5082401;28;20427;-61
2023/09/18 00:20:12;;;;;;;;;;;22.90;63.30;;;;;;5058657;28;19929;-61
2023/09/18 00:22:38;;;;;;;;;;;22.80;63.10;;;;;;5071280;28;19931;-61
2023/09/18 00:25:07;;;;;;;;;;;22.90;63.30;;;;;;5072983;28;19924;-61
2023/09/18 00:27:35;;;;;;;;;;;22.90;63.30;;;;;;5055725;28;19925;-60
2023/09/18 00:30:02;;;;;;;;;;;22.90;63.30;;;;;;5058563;28;19928;-61
2023/09/18 00:32:29;;;;;;;;;;;22.80;63.10;;;;;;5070722;28;20041;-61
2023/09/18 00:34:56;;;;;;;;;;;22.80;63.10;;;;;;5082200;28;20285;-61
2023/09/18 00:37:23;;;;;;;;;;;22.80;63.10;;;;;;5051840;28;19931;-61
2023/09/18 00:39:50;;;;;;;;;;;22.80;63.10;;;;;;5065887;28;19928;-61
2023/09/18 00:42:18;;;;;;;;;;;22.80;63.10;;;;;;5074905;28;19928;-61
2023/09/18 00:44:45;;;;;;;;;;;22.80;63.10;;;;;;5078423;28;19940;-61
2023/09/18 00:47:12;;;;;;;;;;;22.80;63.10;;;;;;5078735;28;19937;-61
2023/09/18 00:49:39;;;;;;;;;;;22.80;63.10;;;;;;5075733;28;20397;-61
2023/09/18 00:52:06;;;;;;;;;;;22.80;63.00;;;;;;5054057;28;19929;-61
2023/09/18 00:54:33;;;;;;;;;;;22.80;63.10;;;;;;5076611;28;20023;-61
2023/09/18 00:57:00;;;;;;;;;;;22.80;63.00;;;;;;5078878;28;19932;-60
2023/09/18 00:59:28;;;;;;;;;;;22.80;63.00;;;;;;5074818;28;19946;-61
2023/09/18 01:01:55;;;;;;;;;;;22.80;63.00;;;;;;5087408;28;19932;-61
2023/09/18 01:04:22;;;;;;;;;;;22.80;63.10;;;;;;5073778;28;19932;-61
2023/09/18 01:06:49;;;;;;;;;;;22.80;63.00;;;;;;5054775;28;19982;-61
2023/09/18 01:09:16;;;;;;;;;;;22.80;63.00;;;;;;5068939;28;19924;-61
2023/09/18 01:11:44;;;;;;;;;;;22.80;63.00;;;;;;5071443;28;19931;-61
2023/09/18 01:14:13;;;;;;;;;;;22.80;63.00;;;;;;5061691;28;19931;-61
2023/09/18 01:16:43;;;;;;;;;;;22.80;63.00;;;;;;5071131;28;19925;-61
2023/09/18 01:19:10;;;;;;;;;;;22.80;63.00;;;;;;5084441;28;19945;-61
2023/09/18 01:21:37;;;;;;;;;;;22.80;63.00;;;;;;5087209;28;19929;-61
2023/09/18 01:24:06;;;;;;;;;;;22.80;63.00;;;;;;5081642;28;19939;-61
2023/09/18 01:26:32;;;;;;;;;;;22.80;63.00;;;;;;5082957;28;19932;-61
2023/09/18 01:28:59;;;;;;;;;;;22.80;62.90;;;;;;5076832;28;20217;-61
2023/09/18 01:31:27;;;;;;;;;;;22.80;62.90;;;;;;5074068;28;20002;-61
2023/09/18 01:33:53;;;;;;;;;;;22.80;62.90;;;;;;5065446;28;20386;-60
2023/09/18 01:36:20;;;;;;;;;;;22.80;62.80;;;;;;5083735;28;20275;-61
2023/09/18 01:38:47;;;;;;;;;;;22.80;62.90;;;;;;5064171;28;19928;-61
2023/09/18 01:41:15;;;;;;;;;;;22.80;62.80;;;;;;5067124;28;19928;-62
2023/09/18 01:43:42;;;;;;;;;;;22.80;62.80;;;;;;5080821;28;20363;-62
2023/09/18 01:46:09;;;;;;;;;;;22.80;62.80;;;;;;5059672;28;19946;-61
2023/09/18 01:48:35;;;;;;;;;;;22.80;62.80;;;;;;5063695;28;19985;-62
2023/09/18 01:51:02;;;;;;;;;;;22.80;62.80;;;;;;5082109;28;19928;-60
2023/09/18 01:53:29;;;;;;;;;;;22.80;62.80;;;;;;5056545;28;19932;-61
2023/09/18 01:55:56;;;;;;;;;;;22.80;62.80;;;;;;5056151;28;19924;-61
2023/09/18 01:58:24;;;;;;;;;;;22.80;62.80;;;;;;5069388;28;19928;-61
2023/09/18 02:00:51;;;;;;;;;;;22.70;62.70;;;;;;5070439;28;19925;-61
2023/09/18 02:03:20;;;;;;;;;;;22.70;62.60;;;;;;5058411;28;19924;-61
2023/09/18 02:05:47;;;;;;;;;;;22.70;62.60;;;;;;5056131;28;20011;-61
2023/09/18 02:08:13;;;;;;;;;;;22.80;62.60;;;;;;5075465;28;20271;-61
2023/09/18 02:10:40;;;;;;;;;;;22.80;62.60;;;;;;5084837;28;19924;-61
2023/09/18 02:13:07;;;;;;;;;;;22.80;62.60;;;;;;5082899;28;19931;-61
2023/09/18 02:15:37;;;;;;;;;;;22.70;62.50;;;;;;5064292;28;19933;-61
2023/09/18 02:18:04;;;;;;;;;;;22.70;62.50;;;;;;5054651;28;19932;-61
2023/09/18 02:20:30;;;;;;;;;;;22.80;63.30;;;;;;5055807;28;19929;-61
2023/09/18 02:22:57;;;;;;;;;;;22.70;62.50;;;;;;5065717;28;19924;-61
2023/09/18 02:25:24;;;;;;;;;;;22.70;62.50;;;;;;5072484;28;19929;-61
2023/09/18 02:27:51;;;;;;;;;;;22.70;62.50;;;;;;5067358;28;20011;-61
2023/09/18 02:30:19;;;;;;;;;;;22.70;62.40;;;;;;5058576;28;19924;-61
2023/09/18 02:32:47;;;;;;;;;;;22.70;62.40;;;;;;5055923;28;19932;-61
2023/09/18 02:35:14;;;;;;;;;;;22.70;62.40;;;;;;5072930;28;20027;-61
2023/09/18 02:37:41;;;;;;;;;;;22.70;62.40;;;;;;5082305;28;19986;-61
2023/09/18 02:40:08;;;;;;;;;;;22.70;62.30;;;;;;5080644;28;19925;-61
2023/09/18 02:42:35;;;;;;;;;;;22.80;62.40;;;;;;5055675;28;19979;-61
2023/09/18 02:45:02;;;;;;;;;;;22.70;62.30;;;;;;5090419;28;20341;-61
2023/09/18 02:47:28;;;;;;;;;;;22.70;62.30;;;;;;5064689;28;19928;-62
2023/09/18 02:49:57;;;;;;;;;;;22.70;62.30;;;;;;5064104;28;19924;-61
2023/09/18 02:52:23;;;;;;;;;;;22.70;62.30;;;;;;5077835;28;19928;-61
2023/09/18 02:54:50;;;;;;;;;;;22.70;62.30;;;;;;5080693;28;20352;-61
2023/09/18 02:57:17;;;;;;;;;;;22.70;62.20;;;;;;5064251;28;19932;-61
2023/09/18 02:59:44;;;;;;;;;;;22.70;62.20;;;;;;5092340;28;19932;-61
2023/09/18 03:02:10;;;;;;;;;;;22.70;62.20;;;;;;5107454;28;19925;-61
2023/09/18 03:04:37;;;;;;;;;;;22.70;62.20;;;;;;5084218;28;19924;-61
2023/09/18 03:07:06;;;;;;;;;;;22.70;62.10;;;;;;5081979;28;20240;-61
2023/09/18 03:09:32;;;;;;;;;;;22.70;62.10;;;;;;5080540;28;19928;-61
2023/09/18 03:11:59;;;;;;;;;;;22.70;62.10;;;;;;5057870;28;19925;-61
2023/09/18 03:14:26;;;;;;;;;;;22.70;62.10;;;;;;5073941;28;19924;-62
2023/09/18 03:16:55;;;;;;;;;;;22.70;62.10;;;;;;5075219;28;19932;-61
2023/09/18 03:19:24;;;;;;;;;;;22.70;62.10;;;;;;5098029;28;19925;-61
2023/09/18 03:21:51;;;;;;;;;;;22.70;62.10;;;;;;5079903;28;19960;-61
2023/09/18 03:24:19;;;;;;;;;;;22.70;62.00;;;;;;5080424;28;19924;-62
2023/09/18 03:26:46;;;;;;;;;;;22.70;62.00;;;;;;5082087;28;20009;-61
2023/09/18 03:29:13;;;;;;;;;;;22.70;62.00;;;;;;5071293;28;19938;-60
2023/09/18 03:31:40;;;;;;;;;;;22.70;62.00;;;;;;5078701;28;20301;-61
2023/09/18 03:34:06;;;;;;;;;;;22.70;62.00;;;;;;5087035;28;19925;-62
2023/09/18 03:36:35;;;;;;;;;;;22.70;62.00;;;;;;5077624;28;19928;-62
2023/09/18 03:39:02;;;;;;;;;;;22.70;61.90;;;;;;5078510;28;20432;-61
2023/09/18 03:41:33;;;;;;;;;;;22.70;61.80;;;;;;5071466;28;19930;-61
2023/09/18 03:44:00;;;;;;;;;;;22.70;61.90;;;;;;5077298;28;19924;-61
2023/09/18 03:46:27;;;;;;;;;;;22.70;61.80;;;;;;5084766;28;19928;-61
2023/09/18 03:48:54;;;;;;;;;;;22.70;61.70;;;;;;5100510;28;20026;-60
2023/09/18 03:51:21;;;;;;;;;;;22.70;61.70;;;;;;5083041;28;20023;-62
2023/09/18 03:53:48;;;;;;;;;;;22.70;61.70;;;;;;5094424;28;19931;-61
2023/09/18 03:56:15;;;;;;;;;;;22.70;61.70;;;;;;5097611;28;19931;-61
2023/09/18 03:58:45;;;;;;;;;;;22.70;61.60;;;;;;5077742;28;19924;-61
2023/09/18 04:01:13;;;;;;;;;;;22.60;61.50;;;;;;5068041;28;19932;-61
2023/09/18 04:03:39;;;;;;;;;;;22.70;61.60;;;;;;5083105;28;19987;-61
2023/09/18 04:06:08;;;;;;;;;;;22.70;61.60;;;;;;5074325;28;22179;-62
2023/09/18 04:08:35;;;;;;;;;;;22.60;61.40;;;;;;5077603;28;19931;-61
2023/09/18 04:11:04;;;;;;;;;;;22.70;62.30;;;;;;5079267;28;19950;-61
2023/09/18 04:13:31;;;;;;;;;;;22.60;61.40;;;;;;5077753;28;19925;-61
2023/09/18 04:16:00;;;;;;;;;;;22.60;61.30;;;;;;5070896;28;19924;-61
2023/09/18 04:18:27;;;;;;;;;;;22.60;61.40;;;;;;5071099;28;20267;-61
2023/09/18 04:20:54;;;;;;;;;;;22.60;61.30;;;;;;5074781;28;19936;-61
2023/09/18 04:23:22;;;;;;;;;;;22.60;61.30;;;;;;5076362;28;19924;-61
2023/09/18 04:25:49;;;;;;;;;;;22.60;61.30;;;;;;5087632;28;19928;-61
2023/09/18 04:28:16;;;;;;;;;;;22.60;61.30;;;;;;5081645;28;19924;-60
2023/09/18 04:30:42;;;;;;;;;;;22.60;61.30;;;;;;5083302;28;19924;-61
2023/09/18 04:33:11;;;;;;;;;;;22.60;61.30;;;;;;5092341;28;19997;-61
2023/09/18 04:35:39;;;;;;;;;;;22.60;61.30;;;;;;5077345;28;19924;-61
2023/09/18 04:38:06;;;;;;;;;;;22.60;61.30;;;;;;5077221;28;20382;-61
2023/09/18 04:40:34;;;;;;;;;;;22.60;61.20;;;;;;5076069;28;19924;-61
2023/09/18 04:43:03;;;;;;;;;;;22.60;61.20;;;;;;5076340;28;19931;-61
2023/09/18 04:45:30;;;;;;;;;;;22.60;61.20;;;;;;5083490;28;20369;-61
2023/09/18 04:47:57;;;;;;;;;;;22.60;61.20;;;;;;5074798;28;20200;-61
2023/09/18 04:50:26;;;;;;;;;;;22.60;61.20;;;;;;5104491;28;20278;-61
2023/09/18 04:52:54;;;;;;;;;;;22.60;61.10;;;;;;5081635;28;19930;-61
2023/09/18 04:55:21;;;;;;;;;;;22.60;61.20;;;;;;5087186;28;19924;-61
2023/09/18 04:57:48;;;;;;;;;;;22.60;61.10;;;;;;5097428;28;20266;-61
2023/09/18 05:00:16;;;;;;;;;;;22.60;61.10;;;;;;5086615;28;20399;-61
2023/09/18 05:02:43;;;;;;;;;;;22.60;61.00;;;;;;5098269;28;19931;-61
2023/09/18 05:05:09;;;;;;;;;;;22.60;61.00;;;;;;5076423;28;19998;-61
2023/09/18 05:07:38;;;;;;;;;;;22.60;61.00;;;;;;5080519;28;19925;-61
2023/09/18 05:10:05;;;;;;;;;;;22.60;61.00;;;;;;5073334;28;19950;-61
2023/09/18 05:12:32;;;;;;;;;;;22.60;61.40;;;;;;5072030;28;19970;-61
2023/09/18 05:14:59;;;;;;;;;;;22.60;61.00;;;;;;5102520;28;19928;-61
2023/09/18 05:17:41;;;;;;;;;;;22.60;61.00;;;;;;5070948;28;19931;-62
2023/09/18 05:20:09;;;;;;;;;;;22.60;61.00;;;;;;5100525;28;19924;-61
2023/09/18 05:22:38;;;;;;;;;;;22.60;61.00;;;;;;5102623;28;19959;-61
2023/09/18 05:25:05;;;;;;;;;;;22.60;61.00;;;;;;5076652;28;20015;-61
2023/09/18 05:27:32;;;;;;;;;;;22.60;61.00;;;;;;5094224;28;19964;-62
2023/09/18 05:29:59;;;;;;;;;;;22.60;61.00;;;;;;5092860;28;19924;-61
2023/09/18 05:32:26;;;;;;;;;;;22.60;61.00;;;;;;5083691;28;20340;-61
2023/09/18 05:34:52;;;;;;;;;;;22.60;61.00;;;;;;5078975;28;19925;-61
2023/09/18 05:37:19;;;;;;;;;;;22.60;61.00;;;;;;5069689;28;19924;-61
2023/09/18 05:39:48;;;;;;;;;;;22.60;61.00;;;;;;5070972;28;19931;-61
2023/09/18 05:42:15;;;;;;;;;;;22.60;61.00;;;;;;5082006;28;19929;-61
2023/09/18 05:44:42;;;;;;;;;;;22.60;61.00;;;;;;5093891;28;19925;-61
2023/09/18 05:47:09;;;;;;;;;;;22.60;60.90;;;;;;5074041;28;20347;-61
2023/09/18 05:49:36;;;;;;;;;;;22.50;60.80;;;;;;5079377;28;19931;-61
2023/09/18 05:52:05;;;;;;;;;;;22.50;60.80;;;;;;5101475;28;19935;-61
2023/09/18 05:54:31;;;;;;;;;;;22.50;60.80;;;;;;5078292;28;19935;-61
2023/09/18 05:57:01;;;;;;;;;;;22.50;60.80;;;;;;5106450;28;19936;-61
2023/09/18 05:59:28;;;;;;;;;;;22.50;60.80;;;;;;5090334;28;19972;-60
2023/09/18 06:01:55;;;;;;;;;;;22.50;60.80;;;;;;5082627;28;19929;-61
2023/09/18 06:04:24;;;;;;;;;;;22.50;60.80;;;;;;5071188;28;19924;-61
2023/09/18 06:06:51;;;;;;;;;;;22.50;60.90;;;;;;5059272;28;19973;-62
2023/09/18 06:09:18;;;;;;;;;;;22.50;60.80;;;;;;5056874;28;19924;-62
2023/09/18 06:11:45;;;;;;;;;;;22.50;60.80;;;;;;5055435;28;19947;-62
2023/09/18 06:14:13;;;;;;;;;;;22.50;60.90;;;;;;5072265;28;19951;-61
2023/09/18 06:16:40;;;;;;;;;;;22.50;60.90;;;;;;5057471;28;19925;-61
2023/09/18 06:19:07;;;;;;;;;;;22.50;60.80;;;;;;5056664;28;19925;-62
2023/09/18 06:21:33;;;;;;;;;;;22.50;60.90;;;;;;5059327;28;19928;-61
2023/09/18 06:24:00;;;;;;;;;;;22.50;60.80;;;;;;5066598;28;19925;-62
2023/09/18 06:26:27;;;;;;;;;;;22.50;60.80;;;;;;5076251;28;19931;-62
2023/09/18 06:28:54;;;;;;;;;;;22.50;61.10;;;;;;5067635;28;19928;-62
2023/09/18 06:31:23;;;;;;;;;;;22.50;61.20;;;;;;5068124;28;19924;-61
2023/09/18 06:33:50;;;;;;;;;;;22.50;61.20;;;;;;5055921;28;19924;-61
2023/09/18 06:36:16;;;;;;;;;;;22.50;61.30;;;;;;5071752;28;19932;-61
2023/09/18 06:38:43;;;;;;;;;;;22.50;61.30;;;;;;5053491;28;19924;-61
2023/09/18 06:41:10;;;;;;;;;;;22.60;61.40;;;;;;5050050;28;19925;-62
2023/09/18 06:43:37;;;;;;;;;;;22.50;61.30;;;;;;5054181;28;20290;-61
2023/09/18 06:46:04;;;;;;;;;;;22.50;61.30;;;;;;5070256;28;19989;-62
2023/09/18 06:48:32;;;;;;;;;;;22.50;61.30;;;;;;5069616;28;19970;-63
2023/09/18 06:51:00;;;;;;;;;;;22.50;61.40;;;;;;5054265;28;19924;-61
2023/09/18 06:53:26;;;;;;;;;;;22.50;61.30;;;;;;5054280;28;19929;-61
2023/09/18 06:55:53;;;;;;;;;;;22.50;61.30;;;;;;5062190;28;19925;-62
2023/09/18 06:58:20;;;;;;;;;;;22.50;61.40;;;;;;5058698;28;19932;-62
2023/09/18 07:00:47;;;;;;;;;;;22.50;61.40;;;;;;5071321;28;20443;-62
2023/09/18 07:03:14;;;;;;;;;;;22.50;61.40;;;;;;5070273;28;19928;-62
2023/09/18 07:05:42;;;;;;;;;;;22.50;61.40;;;;;;5067733;28;19940;-61
2023/09/18 07:08:11;;;;;;;;;;;22.50;61.40;;;;;;5080639;28;20476;-61
2023/09/18 07:10:38;;;;;;;;;;;22.50;61.40;;;;;;5086988;28;19970;-61
2023/09/18 07:13:05;;;;;;;;;;;22.50;61.30;;;;;;5072662;28;20324;-61
2023/09/18 07:15:32;;;;;;;;;;;22.50;61.40;;;;;;5073408;28;19931;-62
2023/09/18 07:17:58;;;;;;;;;;;22.50;62.00;;;;;;5073102;28;19925;-62
2023/09/18 07:20:25;;;;;;;;;;;22.50;61.30;;;;;;5073942;28;19927;-61
2023/09/18 07:22:53;;;;;;;;;;;22.60;61.50;;;;;;5073401;28;19935;-61
2023/09/18 07:25:20;;;;;;;;;;;22.50;62.10;;;;;;5069922;28;20050;-63
2023/09/18 07:27:47;;;;;;;;;;;22.60;61.50;;;;;;5071210;28;19924;-62
2023/09/18 07:30:16;;;;;;;;;;;22.60;61.30;;;;;;5071906;28;20227;-62
2023/09/18 07:32:42;;;;;;;;;;;22.60;61.40;;;;;;5069935;28;19928;-61
2023/09/18 07:35:09;;;;;;;;;;;22.60;61.50;;;;;;5075226;28;20008;-62
2023/09/18 07:37:36;;;;;;;;;;;22.60;61.50;;;;;;5087659;28;19936;-62
2023/09/18 07:40:04;;;;;;;;;;;22.60;61.50;;;;;;5070613;28;19950;-62
2023/09/18 07:42:31;;;;;;;;;;;22.60;61.50;;;;;;5075056;28;19973;-62
2023/09/18 07:44:58;;;;;;;;;;;22.60;61.60;;;;;;5086498;28;19976;-62
2023/09/18 07:47:24;;;;;;;;;;;22.60;61.60;;;;;;5070264;28;19943;-62
2023/09/18 07:49:51;;;;;;;;;;;22.60;61.50;;;;;;5069619;28;19947;-62
2023/09/18 07:52:18;;;;;;;;;;;22.60;61.60;;;;;;5069966;28;19924;-62
2023/09/18 07:54:45;;;;;;;;;;;22.70;61.70;;;;;;5085470;28;19932;-62
2023/09/18 07:57:15;;;;;;;;;;;22.60;61.70;;;;;;5084596;28;19928;-62
2023/09/18 07:59:42;;;;;;;;;;;22.60;61.60;;;;;;5051780;28;19924;-61
2023/09/18 08:02:10;;;;;;;;;;;22.60;61.60;;;;;;5053758;28;20175;-61
2023/09/18 08:04:36;;;;;;;;;;;22.60;61.60;;;;;;5075415;28;19973;-60
2023/09/18 08:07:05;;;;;;;;;;;22.70;61.70;;;;;;5064321;28;19975;-60
2023/09/18 08:09:35;;;;;;;;;;;22.70;61.70;;;;;;5062653;28;19928;-59
2023/09/18 08:12:02;;;;;;;;;;;22.70;62.00;;;;;;5073345;28;19920;-59
2023/09/18 08:14:31;;;;;;;;;;;22.70;62.00;;;;;;5070393;28;19931;-59
2023/09/18 08:16:58;;;;;;;;;;;22.70;62.00;;;;;;5056330;28;19925;-60
2023/09/18 08:19:26;;;;;;;;;;;22.70;62.00;;;;;;5061084;28;19928;-59
2023/09/18 08:21:54;;;;;;;;;;;22.70;62.00;;;;;;5086357;28;20420;-60
2023/09/18 08:24:20;;;;;;;;;;;22.70;62.00;;;;;;5089249;28;19924;-60
2023/09/18 08:26:47;;;;;;;;;;;22.70;62.10;;;;;;5073022;28;20038;-59
2023/09/18 08:29:15;;;;;;;;;;;22.70;62.10;;;;;;5056436;28;19924;-57
2023/09/18 08:31:43;;;;;;;;;;;22.70;62.10;;;;;;5082767;28;19928;-61
2023/09/18 08:34:10;;;;;;;;;;;22.70;62.20;;;;;;5081738;28;19933;-61
2023/09/18 08:36:36;;;;;;;;;;;22.70;62.30;;;;;;5059193;28;19940;-60
2023/09/18 08:39:05;;;;;;;;;;;22.70;62.30;;;;;;5052251;28;19943;-60
2023/09/18 08:41:32;;;;;;;;;;;22.70;62.20;;;;;;5053928;28;19974;-61
2023/09/18 08:44:00;;;;;;;;;;;22.70;62.10;;;;;;5052705;28;20175;-59
2023/09/18 08:46:27;;;;;;;;;;;22.70;62.10;;;;;;5060342;28;19928;-60
2023/09/18 08:48:56;;;;;;;;;;;22.70;62.10;;;;;;5052726;28;19932;-60
2023/09/18 08:51:23;;;;;;;;;;;22.70;62.10;;;;;;5053140;28;19924;-59
2023/09/18 08:53:50;;;;;;;;;;;22.70;62.10;;;;;;5068972;28;19962;-60
2023/09/18 08:56:17;;;;;;;;;;;22.70;62.10;;;;;;5061589;28;19937;-61
2023/09/18 08:58:44;;;;;;;;;;;22.70;62.20;;;;;;5076094;28;19928;-60
2023/09/18 09:01:11;;;;;;;;;;;22.70;62.30;;;;;;5064607;28;19924;-59
2023/09/18 09:03:38;;;;;;;;;;;22.70;62.40;;;;;;5084321;28;19928;-60
2023/09/18 09:06:06;;;;;;;;;;;22.70;62.30;;;;;;5079078;28;20285;-60
2023/09/18 09:08:33;;;;;;;;;;;22.70;62.30;;;;;;5059592;28;19931;-59
2023/09/18 09:11:00;;;;;;;;;;;22.70;62.40;;;;;;5060593;28;19924;-60
2023/09/18 09:13:26;;;;;;;;;;;22.70;62.40;;;;;;5078269;28;19928;-59
2023/09/18 09:15:55;;;;;;;;;;;22.70;62.40;;;;;;5081534;28;20439;-59
2023/09/18 09:18:22;;;;;;;;;;;22.70;63.20;;;;;;5081487;28;19964;-60
2023/09/18 09:20:57;;;;;;;;;;;22.70;62.60;;;;;;5079929;28;19928;-60
2023/09/18 09:23:25;;;;;;;;;;;22.70;62.60;;;;;;5081080;28;19932;-60
2023/09/18 09:25:53;;;;;;;;;;;22.70;63.30;;;;;;5064762;28;19930;-60
2023/09/18 09:28:29;;;;;;;;;;;22.70;62.60;;;;;;5060843;28;19924;-59
2023/09/18 09:31:01;;;;;;;;;;;22.80;62.60;;;;;;5068885;28;19931;-60
2023/09/18 09:33:28;;;;;;;;;;;22.70;62.40;;;;;;5075043;28;20385;-60
2023/09/18 09:35:54;;;;;;;;;;;22.80;62.50;;;;;;5058509;28;19924;-60
2023/09/18 09:38:21;;;;;;;;;;;22.70;62.50;;;;;;5083187;28;19954;-60
2023/09/18 09:40:49;;;;;;;;;;;22.80;62.60;;;;;;5090133;28;19929;-59
2023/09/18 09:43:18;;;;;;;;;;;22.80;62.60;;;;;;5094393;28;19924;-59
2023/09/18 09:45:45;;;;;;;;;;;22.80;62.60;;;;;;5089650;28;20015;-60
2023/09/18 09:48:12;;;;;;;;;;;22.80;62.60;;;;;;5058193;28;20179;-60
2023/09/18 09:50:46;;;;;;;;;;;22.80;62.60;;;;;;5065459;28;19958;-60
2023/09/18 09:53:13;;;;;;;;;;;22.80;62.70;;;;;;5066417;28;20072;-60
2023/09/18 09:55:40;;;;;;;;;;;22.80;62.70;;;;;;5055654;28;20057;-60
2023/09/18 09:58:10;;;;;;;;;;;22.80;62.80;;;;;;5063226;28;19925;-60
2023/09/18 10:00:42;;;;;;;;;;;22.90;62.80;;;;;;5078312;28;19970;-60
2023/09/18 10:03:09;;;;;;;;;;;22.80;63.00;;;;;;5092639;28;19955;-60
2023/09/18 10:05:37;;;;;;;;;;;22.80;62.90;;;;;;5084292;28;20381;-60
2023/09/18 10:08:04;;;;;;;;;;;22.80;63.00;;;;;;5084023;28;19928;-60
2023/09/18 10:10:33;;;;;;;;;;;22.80;62.90;;;;;;5084783;28;19930;-59
2023/09/18 10:13:02;;;;;;;;;;;22.90;63.10;;;;;;5101746;28;19951;-59
2023/09/18 10:15:33;;;;;;;;;;;22.90;63.10;;;;;;5081389;28;20355;-59
2023/09/18 10:18:00;;;;;;;;;;;22.90;63.10;;;;;;5089803;28;19928;-60
2023/09/18 10:20:27;;;;;;;;;;;22.90;63.10;;;;;;5097792;28;19932;-60
2023/09/18 10:22:54;;;;;;;;;;;22.90;63.10;;;;;;5081614;28;19996;-59
2023/09/18 10:25:22;;;;;;;;;;;22.90;63.10;;;;;;5085413;28;19931;-59
2023/09/18 10:27:49;;;;;;;;;;;22.90;63.10;;;;;;5077456;28;19951;-60
2023/09/18 10:30:18;;;;;;;;;;;22.90;63.10;;;;;;5084012;28;19921;-59
2023/09/18 10:32:48;;;;;;;;;;;22.90;63.10;;;;;;5087415;28;19925;-60
2023/09/18 10:35:15;;;;;;;;;;;22.90;63.20;;;;;;5080990;28;19928;-60
2023/09/18 10:37:42;;;;;;;;;;;22.90;63.30;;;;;;5086014;28;19925;-60
2023/09/18 10:40:09;;;;;;;;;;;22.90;63.20;;;;;;5072981;28;19964;-60
2023/09/18 10:42:36;;;;;;;;;;;22.90;63.30;;;;;;5103347;28;19925;-60
2023/09/18 10:45:04;;;;;;;;;;;22.90;63.30;;;;;;5080694;28;19924;-60
2023/09/18 10:47:31;;;;;;;;;;;22.90;63.40;;;;;;5072639;28;19974;-60
2023/09/18 10:50:00;;;;;;;;;;;22.90;63.40;;;;;;5072575;28;19931;-59
2023/09/18 10:52:27;;;;;;;;;;;23.00;63.50;;;;;;5072376;28;19976;-60
2023/09/18 10:54:54;;;;;;;;;;;23.00;63.50;;;;;;5079975;28;19978;-59
2023/09/18 10:57:21;;;;;;;;;;;22.90;63.40;;;;;;5109492;28;19924;-60
2023/09/18 10:59:47;;;;;;;;;;;23.00;63.50;;;;;;5083538;28;19978;-60
2023/09/18 11:02:15;;;;;;;;;;;22.90;63.50;;;;;;5080031;28;19940;-59
2023/09/18 11:04:42;;;;;;;;;;;23.00;63.60;;;;;;5094527;28;19923;-60
2023/09/18 11:07:10;;;;;;;;;;;23.00;63.60;;;;;;5081088;28;19929;-60
2023/09/18 11:09:43;;;;;;;;;;;23.00;63.60;;;;;;5070635;28;19931;-60
2023/09/18 11:12:11;;;;;;;;;;;23.00;63.80;;;;;;5080616;28;19954;-60
2023/09/18 11:14:44;;;;;;;;;;;23.00;64.00;;;;;;5087928;28;19925;-60
2023/09/18 11:17:30;;;;;;;;;;;23.00;64.00;;;;;;5104452;28;19931;-60
2023/09/18 11:20:03;;;;;;;;;;;23.00;63.90;;;;;;5087526;28;19955;-60
2023/09/18 11:22:31;;;;;;;;;;;23.00;63.90;;;;;;5104986;28;19967;-59
2023/09/18 11:25:13;;;;;;;;;;;23.00;64.00;;;;;;5078850;28;19928;-59
2023/09/18 11:27:47;;;;;;;;;;;23.10;64.10;;;;;;5086978;28;19959;-59
2023/09/18 11:30:15;;;;;;;;;;;23.00;64.00;;;;;;5071020;28;19924;-59
2023/09/18 11:32:42;;;;;;;;;;;23.10;64.10;;;;;;5079938;28;19925;-59
2023/09/18 11:35:09;;;;;;;;;;;23.00;64.10;;;;;;5088552;28;19939;-59
2023/09/18 11:37:38;;;;;;;;;;;23.00;64.10;;;;;;5084466;28;19925;-59
2023/09/18 11:40:08;;;;;;;;;;;23.00;64.10;;;;;;5082202;28;19924;-60
2023/09/18 11:42:35;;;;;;;;;;;23.10;64.30;;;;;;5081396;28;19924;-59
2023/09/18 11:45:02;;;;;;;;;;;23.00;64.20;;;;;;5081250;28;19924;-59
2023/09/18 11:47:29;;;;;;;;;;;23.00;64.10;;;;;;5080860;28;19931;-61
2023/09/18 11:49:57;;;;;;;;;;;23.00;64.10;;;;;;5080051;28;19931;-60
2023/09/18 11:52:25;;;;;;;;;;;23.00;64.20;;;;;;5079117;28;19924;-59
2023/09/18 11:54:54;;;;;;;;;;;23.00;64.30;;;;;;5079765;28;20427;-59
2023/09/18 11:57:21;;;;;;;;;;;23.10;64.50;;;;;;5079863;28;19925;-59
2023/09/18 11:59:48;;;;;;;;;;;23.10;64.40;;;;;;5073805;28;20421;-59
2023/09/18 12:02:20;;;;;;;;;;;23.10;64.40;;;;;;5084367;28;19928;-58
2023/09/18 12:04:48;;;;;;;;;;;23.10;64.50;;;;;;5085835;28;19931;-59
2023/09/18 12:07:14;;;;;;;;;;;23.10;64.60;;;;;;5098722;28;19924;-58
2023/09/18 12:09:41;;;;;;;;;;;23.10;64.60;;;;;;5078236;28;19931;-61
2023/09/18 12:12:10;;;;;;;;;;;23.10;64.60;;;;;;5073504;28;19928;-61
2023/09/18 12:14:37;;;;;;;;;;;23.10;64.60;;;;;;5080816;28;20002;-60
2023/09/18 12:17:05;;;;;;;;;;;23.10;64.60;;;;;;5089483;28;19935;-59
2023/09/18 12:19:34;;;;;;;;;;;23.10;64.60;;;;;;5092749;28;20090;-60
2023/09/18 12:22:01;;;;;;;;;;;23.10;64.60;;;;;;5076095;28;19929;-59
2023/09/18 12:24:27;;;;;;;;;;;23.10;64.60;;;;;;5100073;28;19972;-60
2023/09/18 12:26:54;;;;;;;;;;;23.10;64.60;;;;;;5102438;28;19924;-60
2023/09/18 12:29:22;;;;;;;;;;;23.10;64.60;;;;;;5082394;28;19963;-60
2023/09/18 12:31:50;;;;;;;;;;;23.10;64.60;;;;;;5099253;28;19924;-60
2023/09/18 12:34:17;;;;;;;;;;;23.10;64.60;;;;;;5082398;28;19924;-60
2023/09/18 12:36:47;;;;;;;;;;;23.10;64.60;;;;;;5075635;28;19932;-60
2023/09/18 12:39:15;;;;;;;;;;;23.20;64.60;;;;;;5105860;28;20019;-61
2023/09/18 12:41:42;;;;;;;;;;;23.20;64.60;;;;;;5079803;28;19924;-61
2023/09/18 12:44:10;;;;;;;;;;;23.10;64.60;;;;;;5081576;28;19931;-59
2023/09/18 12:46:40;;;;;;;;;;;23.10;64.50;;;;;;5080752;28;19959;-59
2023/09/18 12:49:16;;;;;;;;;;;23.10;64.50;;;;;;5078094;28;19936;-59
2023/09/18 12:51:44;;;;;;;;;;;23.10;64.40;;;;;;5086286;28;19974;-60
2023/09/18 12:54:13;;;;;;;;;;;23.10;64.50;;;;;;5078053;28;20359;-61
2023/09/18 12:56:43;;;;;;;;;;;23.20;64.60;;;;;;5069932;28;20282;-61
2023/09/18 12:59:10;;;;;;;;;;;23.20;64.60;;;;;;5077687;28;19925;-60
2023/09/18 13:01:38;;;;;;;;;;;23.10;64.60;;;;;;5075262;28;19931;-60
2023/09/18 13:04:05;;;;;;;;;;;23.10;64.60;;;;;;5081310;28;19977;-61
2023/09/18 13:06:32;;;;;;;;;;;23.20;64.70;;;;;;5083187;28;19924;-61
2023/09/18 13:09:14;;;;;;;;;;;23.20;64.70;;;;;;5079765;28;19955;-61
2023/09/18 13:11:53;;;;;;;;;;;23.20;64.80;;;;;;5082809;28;19935;-60
2023/09/18 13:14:20;;;;;;;;;;;23.20;64.70;;;;;;5082200;28;19924;-61
2023/09/18 13:16:48;;;;;;;;;;;23.20;64.80;;;;;;5081919;28;19946;-61
2023/09/18 13:19:15;;;;;;;;;;;23.20;64.80;;;;;;5098970;28;19928;-60
2023/09/18 13:21:47;;;;;;;;;;;23.20;64.80;;;;;;5075583;28;19974;-61
2023/09/18 13:24:24;;;;;;;;;;;23.20;64.80;;;;;;5089897;28;20184;-60
2023/09/18 13:26:53;;;;;;;;;;;23.20;64.80;;;;;;5090671;28;19924;-60
2023/09/18 13:29:20;;;;;;;;;;;23.20;64.70;;;;;;5081433;28;19928;-60
2023/09/18 13:31:48;;;;;;;;;;;23.20;64.70;;;;;;5098563;28;19973;-60
2023/09/18 13:34:17;;;;;;;;;;;23.20;64.70;;;;;;5098199;28;20522;-60
2023/09/18 13:36:45;;;;;;;;;;;23.20;64.70;;;;;;5075052;28;20397;-60
2023/09/18 13:39:12;;;;;;;;;;;23.20;64.70;;;;;;5077583;28;19954;-60
2023/09/18 13:41:39;;;;;;;;;;;23.20;64.70;;;;;;5099835;28;20214;-60
2023/09/18 13:44:06;;;;;;;;;;;23.20;64.60;;;;;;5073877;28;19932;-61
2023/09/18 13:46:35;;;;;;;;;;;23.20;64.60;;;;;;5085552;28;20019;-60
2023/09/18 13:49:04;;;;;;;;;;;23.20;64.60;;;;;;5104111;28;19932;-60
2023/09/18 13:51:31;;;;;;;;;;;23.20;65.30;;;;;;5107029;28;20339;-60
2023/09/18 13:53:58;;;;;;;;;;;23.20;64.50;;;;;;5072772;28;20323;-60
2023/09/18 13:56:27;;;;;;;;;;;23.20;64.50;;;;;;5102453;28;20031;-60
2023/09/18 13:58:55;;;;;;;;;;;23.20;64.50;;;;;;5069380;28;19925;-61
2023/09/18 14:01:22;;;;;;;;;;;23.20;64.50;;;;;;5080784;28;19963;-60
2023/09/18 14:03:50;;;;;;;;;;;23.20;64.50;;;;;;5089587;28;20317;-61
2023/09/18 14:06:18;;;;;;;;;;;23.20;64.40;;;;;;5074516;28;19935;-60
2023/09/18 14:08:45;;;;;;;;;;;23.20;64.30;;;;;;5087876;28;19928;-60
2023/09/18 14:11:12;;;;;;;;;;;23.20;64.50;;;;;;5074424;28;19982;-60
2023/09/18 14:13:39;;;;;;;;;;;23.20;64.40;;;;;;5095976;28;20009;-60
2023/09/18 14:16:06;;;;;;;;;;;23.20;64.40;;;;;;5100310;28;19924;-60
2023/09/18 14:18:32;;;;;;;;;;;23.20;64.30;;;;;;5094853;28;19924;-60